McKees Rocks, PA (15136)

2:22 PM EDT on August 31, 2015 (GMT -0400)
Fawn Acres | | Change Station
CLOSE
Current Station
Personal Weather Station
Location: McKees Rocks, PA
Elevation: 1093 ft
Nearby Weather Stations

Elev 1093 ft 40.47 °N, 80.14 °W | Updated 6 minutes ago

Partly Cloudy
Partly Cloudy
87.7 °F
Feels Like 90 °F
N
3.0
Wind Variable Wind from NE
Gusts 3.0 mph

Today
High -- | Low -- °F
--% Chance of Precip.
Yesterday
High -- | Low -- °F
Precip. -- in
6:46 AM 7:54 PM
Waning Gibbous, 94% visible
Pressure 30.10 in
Visibility 10.0 miles
Clouds Few 3600 ft
Few 25000 ft
Heat Index 90 °F
Dew Point 66 °F
Humidity 48%
Rainfall 0.00 in
Snow Depth Not available.
UV 9 out of 12
Pollen 10.50 out of 12
Air Quality Not available.
Flu Activity Not available.
METAR KPIT 311751Z 27009KT 10SM FEW036 FEW250 30/18 A3011 RMK AO2 SLP192 T03000178 10300 20200 58010
Pressure 30.10 in
Visibility 10.0 miles
Clouds Few 3600 ft
Few 25000 ft
Heat Index 90 °F
Dew Point 66 °F
Humidity 48%
Rainfall 0.00 in
Snow Depth Not available.
UV 9 out of 12
Pollen 10.50 out of 12
Air Quality Not available.
Flu Activity Not available.
METAR KPIT 311751Z 27009KT 10SM FEW036 FEW250 30/18 A3011 RMK AO2 SLP192 T03000178 10300 20200 58010

10-Day Weather Forecast

×

Almanac

Astronomy

Aug. 31, 2015 Rise Set
Actual Time
Civil Twilight
Nautical Twilight
Astronomical Twilight
Moon
Length of Visible Light
Length of Day
Tomorrow will be .
, % of the Moon is Illuminated

Today's Extremes

State Highs State Lows

Community

WunderPhotos

Upload Photos

1,851,330 photos uploaded!

WunderBlogs® & News

Nearby

Air Quality

  Air Quality AQ Index Pollutant
Not available.

Snow Depth

Station Depth Elevation

Earthquake Activity

City Distance Mag. Time & Date
Minimum magnitude displayed is 2.5.

Coastal Water Temperatures

Place Temperature

Stations

Nearby Weather Stations

Station Location Temp. Windchill Dew Point Humidity Wind Precip. Elev Updated Type